Time;durP1;ratioP1;P1;durP2;ratioP2;P2;SDS_P1;SDS_P2;PMS_P1;PMS_P2;Temp;Humidity;BMP_temperature;BMP_pressure;BME280_temperature;BME280_humidity;BME280_pressure;Samples;Min_cycle;Max_cycle;Signal;HPM_P1;HPM_P2
2023/05/25 00:00:36;;;;;;;1999.90;999.90;;;;;;;17.07;100.00;98064.81;5032806;28;20105;-75
2023/05/25 00:03:02;;;;;;;1999.90;999.90;;;;;;;16.99;100.00;98068.47;5033793;28;20035;-76
2023/05/25 00:05:28;;;;;;;1999.90;999.90;;;;;;;16.96;100.00;98065.56;5029384;28;20092;-76
2023/05/25 00:07:54;;;;;;;1999.90;999.90;;;;;;;16.93;100.00;98057.94;5013602;28;20057;-76
2023/05/25 00:10:20;;;;;;;1999.90;999.90;;;;;;;16.87;100.00;98059.28;5013163;28;20069;-76
2023/05/25 00:12:45;;;;;;;1999.90;999.90;;;;;;;16.95;100.00;98064.75;5013548;28;20029;-75
2023/05/25 00:15:11;;;;;;;1999.90;999.90;;;;;;;16.95;100.00;98061.16;5013682;28;20036;-77
2023/05/25 00:17:36;;;;;;;1999.90;999.90;;;;;;;16.94;100.00;98068.66;5013297;28;20030;-77
2023/05/25 00:20:08;;;;;;;1999.90;999.90;;;;;;;16.97;100.00;98069.94;4995803;28;20096;-74
2023/05/25 00:22:37;;;;;;;1999.90;999.90;;;;;;;17.00;100.00;98072.84;5013641;28;20029;-75
2023/05/25 00:25:04;;;;;;;1999.90;999.90;;;;;;;16.97;100.00;98072.72;5013370;28;20038;-77
2023/05/25 00:27:30;;;;;;;1999.90;999.90;;;;;;;16.97;100.00;98069.94;5013518;28;20382;-76
2023/05/25 00:29:55;;;;;;;1999.90;999.90;;;;;;;16.96;100.00;98065.56;5013265;28;20453;-77
2023/05/25 00:32:21;;;;;;;1999.90;999.90;;;;;;;16.93;100.00;98069.81;5013348;28;20029;-76
2023/05/25 00:34:46;;;;;;;1999.90;999.90;;;;;;;16.97;100.00;98069.94;5013140;28;20470;-75
2023/05/25 00:37:12;;;;;;;1999.90;999.90;;;;;;;17.01;100.00;98074.47;4995484;28;20029;-76
2023/05/25 00:39:37;;;;;;;1999.90;999.90;;;;;;;16.97;100.00;98068.00;5012937;28;20025;-75
2023/05/25 00:42:05;;;;;;;1999.90;999.90;;;;;;;16.94;100.00;98065.91;5013209;28;20060;-74
2023/05/25 00:44:31;;;;;;;1999.90;999.90;;;;;;;16.93;100.00;98074.50;5013022;28;20422;-76
2023/05/25 00:46:56;;;;;;;1999.90;999.90;;;;;;;16.99;100.00;98076.75;5013137;28;20080;-76
2023/05/25 00:49:22;;;;;;;1999.90;999.90;;;;;;;17.03;100.00;98074.13;5013124;28;20165;-75
2023/05/25 00:51:50;;;;;;;1999.90;999.90;;;;;;;17.09;100.00;98081.91;5012783;28;20076;-77
2023/05/25 00:54:16;;;;;;;1999.90;999.90;;;;;;;17.10;100.00;98079.97;5012673;28;20117;-76
2023/05/25 00:56:49;;;;;;;1999.90;999.90;;;;;;;17.09;100.00;98079.13;5012685;28;20049;-76
2023/05/25 00:59:23;;;;;;;1999.90;999.90;;;;;;;17.02;100.00;98067.78;5012626;28;20061;-76
2023/05/25 01:01:52;;;;;;;1999.90;999.90;;;;;;;16.98;100.00;98077.88;5012803;28;20393;-76
2023/05/25 01:04:20;;;;;;;1999.90;999.90;;;;;;;16.83;100.00;98081.22;5012171;28;20080;-76
2023/05/25 01:06:47;;;;;;;1999.90;999.90;;;;;;;16.82;100.00;98074.06;5012374;28;20053;-77
2023/05/25 01:09:17;;;;;;;1999.90;999.90;;;;;;;16.82;100.00;98085.13;5012135;28;20065;-75
2023/05/25 01:11:44;;;;;;;1999.90;999.90;;;;;;;16.81;100.00;98082.72;5011436;28;20176;-75
2023/05/25 01:14:10;;;;;;;1999.90;999.90;;;;;;;16.85;100.00;98089.97;5011440;28;20045;-76
2023/05/25 01:16:36;;;;;;;1999.90;999.90;;;;;;;16.87;100.00;98093.25;5012516;28;20049;-76
2023/05/25 01:19:02;;;;;;;1999.90;999.90;;;;;;;16.83;100.00;98103.34;5011298;28;20018;-76
2023/05/25 01:21:40;;;;;;;1999.90;999.90;;;;;;;16.80;100.00;98100.41;5012534;28;20029;-76
2023/05/25 01:24:24;;;;;;;1999.90;999.90;;;;;;;16.73;100.00;98095.41;5031721;28;20724;-76
2023/05/25 01:27:16;;;;;;;1999.90;999.90;;;;;;;16.85;100.00;98098.28;5016172;28;20083;-76
2023/05/25 01:29:44;;;;;;;1999.90;999.90;;;;;;;16.89;100.00;98090.94;5011636;28;20038;-75
2023/05/25 01:32:11;;;;;;;1999.90;999.90;;;;;;;16.89;100.00;98096.47;5013106;28;20409;-75
2023/05/25 01:34:38;;;;;;;1999.90;999.90;;;;;;;16.91;100.00;98093.38;4996519;28;20037;-76
2023/05/25 01:37:04;;;;;;;1999.90;999.90;;;;;;;16.81;100.00;98094.56;5013047;28;20033;-76
2023/05/25 01:39:30;;;;;;;1999.90;999.90;;;;;;;16.68;100.00;98086.50;5019038;28;20401;-76
2023/05/25 01:41:55;;;;;;;1999.90;999.90;;;;;;;16.77;100.00;98104.66;5031373;28;20027;-75
2023/05/25 01:44:20;;;;;;;1999.90;999.90;;;;;;;16.71;100.00;98094.13;5017201;28;20395;-75
2023/05/25 01:46:52;;;;;;;1999.90;999.90;;;;;;;16.70;100.00;98093.31;5011967;28;20113;-75
2023/05/25 01:49:31;;;;;;;1999.90;999.90;;;;;;;16.53;100.00;98093.38;5011362;28;20541;-75
2023/05/25 01:52:21;;;;;;;1999.90;999.90;;;;;;;16.43;100.00;98099.25;4993606;28;20046;-75
2023/05/25 01:54:52;;;;;;;1999.90;999.90;;;;;;;16.40;100.00;98095.19;5011065;28;20065;-74
2023/05/25 01:57:18;;;;;;;1999.90;999.90;;;;;;;16.40;100.00;98105.41;5011310;28;20047;-76
2023/05/25 01:59:46;;;;;;;1999.90;999.90;;;;;;;16.50;100.00;98102.31;5010776;28;20479;-74
2023/05/25 02:02:16;;;;;;;1999.90;999.90;;;;;;;16.41;100.00;98102.31;5010843;28;20065;-73
2023/05/25 02:04:42;;;;;;;1999.90;999.90;;;;;;;16.41;100.00;98107.84;5010708;28;20033;-74
2023/05/25 02:07:08;;;;;;;1999.90;999.90;;;;;;;16.33;100.00;98105.09;5010925;28;20046;-75
2023/05/25 02:09:33;;;;;;;1999.90;999.90;;;;;;;16.38;100.00;98110.47;5011108;28;20033;-75
2023/05/25 02:11:58;;;;;;;1999.90;999.90;;;;;;;16.33;100.00;98107.88;5029050;28;20029;-75
2023/05/25 02:14:24;;;;;;;1999.90;999.90;;;;;;;16.33;100.00;98116.16;5030037;28;20025;-75
2023/05/25 02:16:50;;;;;;;1999.90;999.90;;;;;;;16.24;100.00;98105.13;5030852;28;20022;-75
2023/05/25 02:19:16;;;;;;;1999.90;999.90;;;;;;;16.25;100.00;98104.00;5030656;28;20022;-75
2023/05/25 02:21:41;;;;;;;1999.90;999.90;;;;;;;16.18;100.00;98108.41;5030038;28;20098;-74
2023/05/25 02:24:08;;;;;;;1999.90;999.90;;;;;;;16.21;100.00;98118.78;5030624;28;20032;-75
2023/05/25 02:26:34;;;;;;;1999.90;999.90;;;;;;;16.19;100.00;98115.56;5030552;28;20429;-76
2023/05/25 02:29:00;;;;;;;1999.90;999.90;;;;;;;16.17;100.00;98115.03;5030501;28;20390;-75
2023/05/25 02:31:26;;;;;;;1999.90;999.90;;;;;;;16.15;100.00;98122.84;5030492;28;20033;-76
2023/05/25 02:33:52;;;;;;;1999.90;999.90;;;;;;;16.14;100.00;98119.28;5030409;28;20033;-75
2023/05/25 02:36:17;;;;;;;1999.90;999.90;;;;;;;16.11;100.00;98110.84;5030237;28;20462;-75
2023/05/25 02:38:43;;;;;;;1999.90;999.90;;;;;;;16.06;100.00;98109.88;5030401;28;20087;-75
2023/05/25 02:41:08;;;;;;;1999.90;999.90;;;;;;;16.13;100.00;98116.88;5030395;28;20056;-74
2023/05/25 02:43:33;;;;;;;1999.90;999.90;;;;;;;16.05;100.00;98110.19;5030294;28;20037;-76
2023/05/25 02:45:59;;;;;;;1999.90;999.90;;;;;;;16.12;100.00;98120.75;5030693;28;20080;-75
2023/05/25 02:48:24;;;;;;;1999.90;999.90;;;;;;;16.20;100.00;98119.91;5023036;28;20080;-76
2023/05/25 02:50:50;;;;;;;1999.90;999.90;;;;;;;16.14;100.00;98124.78;5028147;28;20033;-74
2023/05/25 02:53:15;;;;;;;1999.90;999.90;;;;;;;16.05;100.00;98122.06;5029082;28;20037;-75
2023/05/25 02:55:42;;;;;;;1999.90;999.90;;;;;;;16.05;100.00;98126.75;5030256;28;20025;-75
2023/05/25 02:58:07;;;;;;;1999.90;999.90;;;;;;;16.05;100.00;98130.34;5030495;28;20116;-75
2023/05/25 03:00:33;;;;;;;1999.90;999.90;;;;;;;16.01;100.00;98118.31;5030141;28;20116;-75
2023/05/25 03:02:58;;;;;;;1999.90;999.90;;;;;;;16.05;100.00;98122.06;5030330;28;20076;-75
2023/05/25 03:05:23;;;;;;;1999.90;999.90;;;;;;;16.14;100.00;98126.75;5033497;28;20428;-75
2023/05/25 03:07:49;;;;;;;1999.90;999.90;;;;;;;16.17;100.00;98135.19;5050431;28;20017;-75
2023/05/25 03:10:14;;;;;;;1999.90;999.90;;;;;;;16.27;100.00;98143.13;5050390;28;20057;-75
2023/05/25 03:12:39;;;;;;;1999.90;999.90;;;;;;;16.21;100.00;98140.88;5039831;28;20025;-75
2023/05/25 03:15:05;;;;;;;1999.90;999.90;;;;;;;16.17;100.00;98145.41;5030099;28;20048;-76
2023/05/25 03:17:30;;;;;;;1999.90;999.90;;;;;;;16.11;100.00;98143.97;5012898;28;20434;-76
2023/05/25 03:19:56;;;;;;;1999.90;999.90;;;;;;;16.12;100.00;98153.88;5030183;28;20117;-74
2023/05/25 03:22:21;;;;;;;1999.90;999.90;;;;;;;16.08;100.00;98148.19;5012446;28;20088;-76
2023/05/25 03:24:48;;;;;;;1999.90;999.90;;;;;;;16.11;100.00;98143.97;5030279;28;20037;-75
2023/05/25 03:27:13;;;;;;;1999.90;999.90;;;;;;;16.25;100.00;98158.41;5030300;28;20087;-76
2023/05/25 03:29:38;;;;;;;1999.90;999.90;;;;;;;16.18;100.00;98158.09;5030147;28;20026;-75
2023/05/25 03:32:04;;;;;;;1999.90;999.90;;;;;;;16.28;100.00;98158.56;5012488;28;20470;-76
2023/05/25 03:34:33;;;;;;;1999.90;999.90;;;;;;;16.31;100.00;98163.44;5031138;28;20041;-76
2023/05/25 03:36:59;;;;;;;1999.90;999.90;;;;;;;16.24;100.00;98156.78;5033906;28;20453;-75
2023/05/25 03:39:24;;;;;;;1999.90;999.90;;;;;;;16.36;100.00;98176.25;5033908;28;20112;-76
2023/05/25 03:41:50;;;;;;;1999.90;999.90;;;;;;;16.36;100.00;98167.94;5033876;28;20501;-76
2023/05/25 03:44:15;;;;;;;1999.90;999.90;;;;;;;16.34;100.00;98167.47;5034027;28;20433;-76
2023/05/25 03:46:40;;;;;;;1999.90;999.90;;;;;;;16.38;100.00;98172.00;5034599;28;20021;-76
2023/05/25 03:49:06;;;;;;;1999.90;999.90;;;;;;;16.31;100.00;98180.00;5033950;28;20040;-74
2023/05/25 03:51:31;;;;;;;1999.90;999.90;;;;;;;16.32;100.00;98176.06;5033666;28;20025;-76
2023/05/25 03:53:56;;;;;;;1999.90;999.90;;;;;;;16.31;100.00;98179.19;5033278;28;20026;-75
2023/05/25 03:56:22;;;;;;;1999.90;999.90;;;;;;;16.33;100.00;98179.66;5035237;28;20029;-76
2023/05/25 03:58:48;;;;;;;1999.90;999.90;;;;;;;16.34;100.00;98184.88;5035422;28;20037;-76
2023/05/25 04:01:13;;;;;;;1999.90;999.90;;;;;;;16.32;100.00;98187.13;5034312;28;20053;-75
2023/05/25 04:03:39;;;;;;;1999.90;999.90;;;;;;;16.36;100.00;98187.28;5033249;28;20485;-75
2023/05/25 04:06:04;;;;;;;1999.90;999.90;;;;;;;16.38;100.00;98193.31;5042287;28;20053;-75
2023/05/25 04:08:30;;;;;;;1999.90;999.90;;;;;;;16.44;100.00;98200.28;5053154;28;20120;-75
2023/05/25 04:10:56;;;;;;;1999.90;999.90;;;;;;;16.46;100.00;98203.50;5018069;28;20026;-76
2023/05/25 04:13:21;;;;;;;1999.90;999.90;;;;;;;16.48;100.00;98203.97;5033021;28;20044;-76
2023/05/25 04:15:48;;;;;;;1999.90;999.90;;;;;;;16.57;100.00;98210.38;5028970;28;20112;-75
2023/05/25 04:18:14;;;;;;;1999.90;999.90;;;;;;;16.51;100.00;98206.09;5033284;28;20036;-75
2023/05/25 04:20:39;;;;;;;1999.90;999.90;;;;;;;16.60;100.00;98218.00;5032811;28;20409;-75
2023/05/25 04:23:04;;;;;;;1999.90;999.90;;;;;;;16.57;100.00;98222.19;5032736;28;20017;-74
2023/05/25 04:25:31;;;;;;;1999.90;999.90;;;;;;;16.57;100.00;98215.88;5032784;28;20432;-75
2023/05/25 04:27:56;;;;;;;1999.90;999.90;;;;;;;16.65;100.00;98223.34;5032495;28;20560;-74
2023/05/25 04:30:22;;;;;;;1999.90;999.90;;;;;;;16.64;100.00;98213.41;5032723;28;20033;-74
2023/05/25 04:32:47;;;;;;;1999.90;999.90;;;;;;;16.72;100.00;98223.66;5032682;28;20021;-75
2023/05/25 04:35:15;;;;;;;1999.90;999.90;;;;;;;16.74;100.00;98217.78;5032122;28;20034;-74
2023/05/25 04:37:41;;;;;;;1999.90;999.90;;;;;;;16.80;100.00;98224.75;5035441;28;20042;-77
2023/05/25 04:40:10;;;;;;;1999.90;999.90;;;;;;;16.88;100.00;98227.50;5030361;28;20030;-75
2023/05/25 04:42:36;;;;;;;1999.90;999.90;;;;;;;16.95;100.00;98221.44;5030014;28;20036;-78
2023/05/25 04:45:02;;;;;;;1999.90;999.90;;;;;;;17.01;100.00;98231.19;5017776;28;20111;-77
2023/05/25 04:47:28;;;;;;;1999.90;999.90;;;;;;;16.98;100.00;98232.66;5012940;28;20058;-81
2023/05/25 04:49:53;;;;;;;1999.90;999.90;;;;;;;16.93;100.00;98234.81;5014594;28;20061;-76
2023/05/25 04:52:18;;;;;;;1999.90;999.90;;;;;;;16.96;100.00;98239.66;5014554;28;20041;-75
2023/05/25 04:54:45;;;;;;;1999.90;999.90;;;;;;;16.94;100.00;98230.91;5014877;28;20037;-79
2023/05/25 04:57:10;;;;;;;1999.90;999.90;;;;;;;17.02;100.00;98252.16;5013065;28;20474;-81
2023/05/25 04:59:36;;;;;;;1999.90;999.90;;;;;;;17.00;100.00;98230.41;5033431;28;20029;-83
2023/05/25 05:02:01;;;;;;;1999.90;999.90;;;;;;;17.20;100.00;98239.91;5032929;28;20036;-81
2023/05/25 05:04:26;;;;;;;1999.90;999.90;;;;;;;17.76;100.00;98252.50;5024123;28;20017;-75
2023/05/25 05:06:53;;;;;;;1999.90;999.90;;;;;;;18.21;100.00;98258.22;5053653;28;20037;-83
2023/05/25 05:09:19;;;;;;;1999.90;999.90;;;;;;;18.25;100.00;98256.41;5035504;28;20509;-80
2023/05/25 05:11:44;;;;;;;1999.90;999.90;;;;;;;18.30;100.00;98266.47;5034983;28;20037;-81
2023/05/25 05:14:10;;;;;;;1999.90;999.90;;;;;;;18.00;100.00;98255.47;5035891;28;20036;-83
2023/05/25 05:16:36;;;;;;;1999.90;999.90;;;;;;;18.33;100.00;98265.78;5052546;28;20043;-77
2023/05/25 05:19:02;;;;;;;1999.90;999.90;;;;;;;18.27;100.00;98264.38;5034285;28;20545;-76
2023/05/25 05:21:27;;;;;;;1999.90;999.90;;;;;;;18.31;100.00;98270.88;5040580;28;20049;-80
2023/05/25 05:23:53;;;;;;;1999.90;999.90;;;;;;;18.41;100.00;98267.69;5053574;28;20021;-78
2023/05/25 05:26:20;;;;;;;1999.90;999.90;;;;;;;18.49;100.00;98259.31;5052760;28;20029;-79
2023/05/25 05:28:45;;;;;;;1999.90;999.90;;;;;;;18.39;100.00;98279.09;5042262;28;20127;-79
2023/05/25 05:31:10;;;;;;;1999.90;999.90;;;;;;;18.39;100.00;98276.31;5025521;28;20018;-81
2023/05/25 05:33:36;;;;;;;1999.90;999.90;;;;;;;18.56;100.00;98270.69;5032335;28;20025;-78
2023/05/25 05:36:02;;;;;;;1999.90;999.90;;;;;;;18.54;100.00;98280.50;5032881;28;20029;-82
2023/05/25 05:38:27;;;;;;;1999.90;999.90;;;;;;;18.47;100.00;98282.97;5024645;28;20079;-84
2023/05/25 05:40:53;;;;;;;1999.90;999.90;;;;;;;18.15;100.00;98277.00;5030270;28;20797;-81
2023/05/25 05:43:18;;;;;;;1999.90;999.90;;;;;;;18.15;100.00;98290.84;5013204;28;20026;-79
2023/05/25 05:45:45;;;;;;;1999.90;999.90;;;;;;;18.22;100.00;98284.78;5007640;28;20025;-81
2023/05/25 05:48:10;;;;;;;1999.90;999.90;;;;;;;18.22;100.00;98283.97;5010305;28;20498;-81
2023/05/25 05:50:36;;;;;;;1999.90;999.90;;;;;;;18.01;100.00;98293.06;5009433;28;20030;-77
2023/05/25 05:53:02;;;;;;;1999.90;999.90;;;;;;;18.17;100.00;98298.81;5017200;28;20025;-82
2023/05/25 05:55:27;;;;;;;1999.90;999.90;;;;;;;18.19;100.00;98299.31;5013894;28;20084;-81
2023/05/25 05:57:53;;;;;;;1999.90;999.90;;;;;;;18.10;100.00;98291.06;5030887;28;20043;-83
2023/05/25 06:00:19;;;;;;;1999.90;999.90;;;;;;;18.15;100.00;98299.16;5029625;28;20040;-81
2023/05/25 06:02:45;;;;;;;1999.90;999.90;;;;;;;17.99;100.00;98303.66;5030849;28;20602;-81
2023/05/25 06:05:11;;;;;;;1999.90;999.90;;;;;;;17.87;100.00;98281.44;5028930;28;20034;-80
2023/05/25 06:07:37;;;;;;;1999.90;999.90;;;;;;;17.85;100.00;98292.03;5041911;28;20029;-81
2023/05/25 06:10:03;;;;;;;1999.90;999.90;;;;;;;17.99;100.00;98300.88;5047317;28;20108;-84
2023/05/25 06:12:28;;;;;;;1999.90;999.90;;;;;;;17.95;100.00;98288.84;5012935;28;20033;-80
2023/05/25 06:14:54;;;;;;;1999.90;999.90;;;;;;;17.77;100.00;98297.59;5032088;28;20038;-81
2023/05/25 06:17:20;;;;;;;1999.90;999.90;;;;;;;17.76;100.00;98301.53;5033961;28;20059;-83
2023/05/25 06:19:45;;;;;;;1999.90;999.90;;;;;;;18.03;100.00;98290.78;5015422;28;20041;-84
2023/05/25 06:22:10;;;;;;;1999.90;999.90;;;;;;;18.08;100.00;98298.06;5014964;28;20068;-86
2023/05/25 06:24:36;;;;;;;1999.90;999.90;;;;;;;18.04;100.00;98309.00;5039924;28;20038;-72
2023/05/25 06:27:04;;;;;;;1999.90;999.90;;;;;;;18.28;100.00;98313.09;5030493;28;20025;-72
2023/05/25 06:29:30;;;;;;;1999.90;999.90;;;;;;;18.17;100.00;98316.25;5029891;28;20025;-70
2023/05/25 06:31:55;;;;;;;1999.90;999.90;;;;;;;18.39;100.00;98323.41;5029488;28;20044;-72
2023/05/25 06:34:21;;;;;;;1999.90;999.90;;;;;;;18.76;100.00;98326.44;5030111;28;20128;-73
2023/05/25 06:36:46;;;;;;;1999.90;999.90;;;;;;;19.14;100.00;98327.84;5029925;28;20049;-73
2023/05/25 06:39:12;;;;;;;1999.90;999.90;;;;;;;19.07;100.00;98330.38;5030437;28;20068;-74
2023/05/25 06:41:38;;;;;;;1999.90;999.90;;;;;;;19.35;100.00;98332.53;5030286;28;20061;-74
2023/05/25 06:44:03;;;;;;;1999.90;999.90;;;;;;;19.13;100.00;98342.06;5030055;28;20032;-72
2023/05/25 06:46:28;;;;;;;1999.90;999.90;;;;;;;19.17;100.00;98341.00;5030111;28;20030;-74
2023/05/25 06:48:54;;;;;;;1999.90;999.90;;;;;;;19.45;100.00;98337.69;5030114;28;20045;-73
2023/05/25 06:51:20;;;;;;;1999.90;999.90;;;;;;;19.90;100.00;98345.91;5030154;28;20068;-73
2023/05/25 06:53:45;;;;;;;1999.90;999.90;;;;;;;19.95;100.00;98343.75;5030205;28;20030;-73
2023/05/25 06:56:10;;;;;;;1999.90;999.90;;;;;;;20.07;100.00;98346.53;5030367;28;20051;-73
2023/05/25 06:58:36;;;;;;;1999.90;999.90;;;;;;;20.16;100.00;98351.94;5030316;28;20035;-73
2023/05/25 07:01:01;;;;;;;1999.90;999.90;;;;;;;20.33;100.00;98340.59;5030142;28;20040;-73
2023/05/25 07:03:27;;;;;;;1999.90;999.90;;;;;;;20.63;100.00;98347.50;5030446;28;20120;-74
2023/05/25 07:05:52;;;;;;;1999.90;999.90;;;;;;;20.31;100.00;98340.16;5030102;28;20817;-72
2023/05/25 07:08:17;;;;;;;1999.90;999.90;;;;;;;20.80;92.25;98340.84;5030385;28;20021;-72
2023/05/25 07:10:43;;;;;;;1999.90;999.90;;;;;;;20.89;89.52;98333.19;5033522;28;20040;-72
2023/05/25 07:13:09;;;;;;;1999.90;999.90;;;;;;;20.44;91.82;98344.53;5034142;28;20057;-72
2023/05/25 07:15:34;;;;;;;1999.90;999.90;;;;;;;20.70;92.49;98331.03;5034309;28;20087;-72
2023/05/25 07:18:00;;;;;;;1999.90;999.90;;;;;;;20.47;90.74;98338.28;5034290;28;20025;-72
2023/05/25 07:20:26;;;;;;;1999.90;999.90;;;;;;;20.88;88.77;98345.47;5034402;28;20029;-72
2023/05/25 07:22:52;;;;;;;1999.90;999.90;;;;;;;20.70;87.34;98347.72;5033877;28;20486;-73
2023/05/25 07:25:17;;;;;;;1999.90;999.90;;;;;;;20.56;89.98;98347.28;5034091;28;20112;-72
2023/05/25 07:27:47;;;;;;;1999.90;999.90;;;;;;;20.39;88.60;98343.97;5034101;28;20108;-73
2023/05/25 07:30:13;;;;;;;1999.90;999.90;;;;;;;21.06;81.88;98349.56;5033934;28;20121;-73
2023/05/25 07:32:38;;;;;;;1999.90;999.90;;;;;;;20.95;82.58;98351.22;5034105;28;20124;-73
2023/05/25 07:35:04;;;;;;;1999.90;999.90;;;;;;;20.95;85.57;98348.44;5033997;28;20044;-72
2023/05/25 07:37:29;;;;;;;1999.90;999.90;;;;;;;21.58;77.71;98354.19;5033822;28;20029;-72
2023/05/25 07:39:55;;;;;;;1999.90;999.90;;;;;;;21.32;75.72;98369.41;5034106;28;20490;-73
2023/05/25 07:42:20;;;;;;;1999.90;999.90;;;;;;;21.34;77.97;98360.69;5033769;28;20027;-73
2023/05/25 07:44:48;;;;;;;1999.90;999.90;;;;;;;21.01;80.09;98352.59;5033764;28;20033;-72
2023/05/25 07:47:13;;;;;;;1999.90;999.90;;;;;;;21.15;78.17;98350.22;5033736;28;20038;-73
2023/05/25 07:49:39;;;;;;;1999.90;999.90;;;;;;;21.25;77.86;98366.44;5033527;28;20079;-73
2023/05/25 07:52:05;;;;;;;1999.90;999.90;;;;;;;21.63;75.59;98362.28;5033593;28;20032;-73
2023/05/25 07:54:30;;;;;;;1999.90;999.90;;;;;;;21.55;76.09;98357.69;5033589;28;20512;-72
2023/05/25 07:56:56;;;;;;;1999.90;999.90;;;;;;;21.93;73.67;98349.53;5033667;28;20030;-73
2023/05/25 07:59:21;;;;;;;1999.90;999.90;;;;;;;22.66;70.13;98354.50;5033543;28;20029;-73
2023/05/25 08:01:47;;;;;;;1999.90;999.90;;;;;;;22.50;71.11;98351.72;5034845;28;20109;-72
2023/05/25 08:04:12;;;;;;;1999.90;999.90;;;;;;;23.29;66.34;98361.41;5016963;28;20066;-73
2023/05/25 08:06:37;;;;;;;1999.90;999.90;;;;;;;22.61;68.02;98355.56;5033009;28;20053;-73
2023/05/25 08:09:03;;;;;;;1999.90;999.90;;;;;;;22.68;67.80;98363.31;5033225;28;20031;-73
2023/05/25 08:11:30;;;;;;;1999.90;999.90;;;;;;;23.26;66.88;98367.75;5033614;28;20025;-73
2023/05/25 08:13:55;;;;;;;1999.90;999.90;;;;;;;24.46;60.76;98369.91;5033056;28;20040;-73
2023/05/25 08:16:21;;;;;;;1999.90;999.90;;;;;;;23.55;63.36;98368.31;5033150;28;20042;-73
2023/05/25 08:18:46;;;;;;;1999.90;999.90;;;;;;;24.72;60.92;98377.47;5032856;28;20432;-73
2023/05/25 08:21:12;;;;;;;1999.90;999.90;;;;;;;26.94;53.58;98375.41;5032679;28;20029;-73
2023/05/25 08:23:41;;;;;;;1999.90;999.90;;;;;;;26.92;51.69;98381.41;5033131;28;20045;-73
2023/05/25 08:26:09;;;;;;;1999.90;999.90;;;;;;;27.59;49.09;98381.72;5033075;28;20017;-72
2023/05/25 08:28:34;;;;;;;1999.90;999.90;;;;;;;25.95;53.30;98374.59;5033015;28;20095;-72
2023/05/25 08:31:00;;;;;;;1999.90;999.90;;;;;;;26.40;51.85;98365.00;5032989;28;20068;-72
2023/05/25 08:33:25;;;;;;;1999.90;999.90;;;;;;;26.67;51.63;98368.38;5032792;28;20508;-72
2023/05/25 08:35:51;;;;;;;1999.90;999.90;;;;;;;28.70;46.95;98384.22;5032810;28;20265;-72
2023/05/25 08:38:17;;;;;;;1999.90;999.90;;;;;;;29.59;43.50;98373.47;5032623;28;20477;-71
2023/05/25 08:40:43;;;;;;;1999.90;999.90;;;;;;;29.91;42.07;98373.31;5032555;28;20075;-72
2023/05/25 08:43:09;;;;;;;1999.90;999.90;;;;;;;29.58;41.95;98371.88;5032792;28;20034;-73
2023/05/25 08:45:34;;;;;;;1999.90;999.90;;;;;;;29.96;41.24;98383.34;5034384;28;20029;-73
2023/05/25 08:48:03;;;;;;;1999.90;999.90;;;;;;;29.21;42.96;98385.72;5034441;28;20441;-72
2023/05/25 08:50:29;;;;;;;1999.90;999.90;;;;;;;28.98;43.23;98377.72;5032798;28;20450;-73
2023/05/25 08:53:01;;;;;;;1999.90;999.90;;;;;;;29.37;42.79;98388.91;5032484;28;20029;-73
2023/05/25 08:55:30;;;;;;;1999.90;999.90;;;;;;;28.49;43.88;98384.22;5032278;28;20040;-73
2023/05/25 08:58:12;;;;;;;1999.90;999.90;;;;;;;25.53;51.23;98372.97;5032396;28;20391;-73
2023/05/25 09:00:50;;;;;;;1999.90;999.90;;;;;;;24.78;55.06;98356.38;5032449;28;20029;-74
2023/05/25 09:03:19;;;;;;;1999.90;999.90;;;;;;;26.48;50.01;98366.66;5032335;28;20029;-73
2023/05/25 09:05:45;;;;;;;1999.90;999.90;;;;;;;27.55;46.54;98371.66;5032147;28;20038;-71
2023/05/25 09:08:10;;;;;;;1999.90;999.90;;;;;;;26.72;48.63;98373.63;5032294;28;20044;-72
2023/05/25 09:10:37;;;;;;;1999.90;999.90;;;;;;;25.69;52.18;98374.72;5032088;28;20057;-72
2023/05/25 09:13:03;;;;;;;1999.90;999.90;;;;;;;27.12;49.26;98367.84;5031994;28;20021;-72
2023/05/25 09:15:30;;;;;;;1999.90;999.90;;;;;;;28.31;44.26;98377.81;5032099;28;20034;-72
2023/05/25 09:17:55;;;;;;;1999.90;999.90;;;;;;;29.59;41.76;98381.94;5031924;28;20025;-72
2023/05/25 09:20:22;;;;;;;1999.90;999.90;;;;;;;26.50;47.84;98359.44;5031874;28;20728;-72
2023/05/25 09:22:48;;;;;;;1999.90;999.90;;;;;;;26.14;49.87;98374.38;5013020;28;20486;-72
2023/05/25 09:25:17;;;;;;;1999.90;999.90;;;;;;;24.95;53.15;98363.44;5012191;28;20037;-72
2023/05/25 09:27:44;;;;;;;1999.90;999.90;;;;;;;23.65;56.47;98362.13;5012160;28;20061;-73
2023/05/25 09:30:09;;;;;;;1999.90;999.90;;;;;;;23.64;59.82;98360.50;5012178;28;20490;-73
2023/05/25 09:32:35;;;;;;;1999.90;999.90;;;;;;;24.82;55.66;98354.47;5011160;28;20025;-73
2023/05/25 09:35:11;;;;;;;1999.90;999.90;;;;;;;25.56;53.08;98366.59;5011948;28;20433;-72
2023/05/25 09:37:38;;;;;;;1999.90;999.90;;;;;;;24.92;54.23;98353.81;5012001;28;20026;-72
2023/05/25 09:40:04;;;;;;;1999.90;999.90;;;;;;;25.42;53.30;98360.00;5011893;28;20041;-73
2023/05/25 09:42:31;;;;;;;1999.90;999.90;;;;;;;27.01;49.19;98355.75;5011673;28;20427;-73
2023/05/25 09:44:59;;;;;;;1999.90;999.90;;;;;;;27.79;46.46;98370.09;5011759;28;20037;-72
2023/05/25 09:47:28;;;;;;;1999.90;999.90;;;;;;;27.94;45.40;98374.56;5011894;28;20088;-73
2023/05/25 09:49:55;;;;;;;1999.90;999.90;;;;;;;29.42;42.13;98373.56;5012181;28;20034;-73
2023/05/25 09:52:21;;;;;;;1999.90;999.90;;;;;;;29.76;40.32;98372.56;5011609;28;20026;-73
2023/05/25 09:54:48;;;;;;;1999.90;999.90;;;;;;;30.64;39.05;98381.59;5011679;28;20030;-73
2023/05/25 09:57:15;;;;;;;1999.90;999.90;;;;;;;30.62;38.71;98379.22;5011624;28;20065;-72
2023/05/25 09:59:40;;;;;;;1999.90;999.90;;;;;;;29.58;41.82;98369.03;5011683;28;20026;-72
2023/05/25 10:02:06;;;;;;;1999.90;999.90;;;;;;;29.48;41.13;98369.91;5011530;28;20125;-72
2023/05/25 10:04:31;;;;;;;1999.90;999.90;;;;;;;29.77;40.69;98370.53;5011489;28;20065;-72
2023/05/25 10:06:59;;;;;;;1999.90;999.90;;;;;;;29.82;40.10;98369.31;5011577;28;20042;-72
2023/05/25 10:09:28;;;;;;;1999.90;999.90;;;;;;;29.02;42.79;98369.25;5015465;28;20263;-73
2023/05/25 10:11:55;;;;;;;1999.90;999.90;;;;;;;27.80;44.41;98357.66;5015010;28;20088;-71
2023/05/25 10:14:24;;;;;;;1999.90;999.90;;;;;;;29.36;41.39;98370.38;5010794;28;20032;-72
2023/05/25 10:16:52;;;;;;;1999.90;999.90;;;;;;;26.94;46.55;98358.56;5011462;28;20053;-72
2023/05/25 10:19:23;;;;;;;1999.90;999.90;;;;;;;28.34;44.12;98359.31;5011174;28;20026;-73
2023/05/25 10:22:06;;;;;;;1999.90;999.90;;;;;;;28.40;45.27;98363.31;5010977;28;20026;-72
2023/05/25 10:24:49;;;;;;;1999.90;999.90;;;;;;;28.84;42.71;98365.69;5011443;28;20022;-72
2023/05/25 10:27:18;;;;;;;1999.90;999.90;;;;;;;28.57;42.23;98357.66;5010913;28;20084;-73
2023/05/25 10:29:47;;;;;;;1999.90;999.90;;;;;;;26.13;47.65;98350.31;5011066;28;20030;-73
2023/05/25 10:32:13;;;;;;;1999.90;999.90;;;;;;;25.17;51.20;98342.09;5010822;28;20030;-71
2023/05/25 10:34:40;;;;;;;1999.90;999.90;;;;;;;24.20;55.08;98333.56;5010811;28;20034;-72
2023/05/25 10:37:06;;;;;;;1999.90;999.90;;;;;;;23.31;58.63;98333.09;5011093;28;20033;-71
2023/05/25 10:39:33;;;;;;;1999.90;999.90;;;;;;;23.93;57.09;98338.25;5010843;28;20026;-72
2023/05/25 10:42:00;;;;;;;1999.90;999.90;;;;;;;24.18;55.78;98333.13;5010927;28;20071;-71
2023/05/25 10:44:27;;;;;;;1999.90;999.90;;;;;;;24.03;56.03;98334.03;5010655;28;20105;-73
2023/05/25 10:46:53;;;;;;;1999.90;999.90;;;;;;;23.82;56.52;98334.50;5010877;28;20025;-72